Armonk, New York
Current Conditions -  °F | °C
As of 8:56 PM on Monday 24 Nov 2014 (Local Time) from KHPN Reporting Station
Clear Clear  
Wind Chill: 16°   Ceiling: Unl
Heat Index: 16°   Visibility: 10mi
Dew Point: 12°   Wind: 9mph
Humidity: 78%   Direction: 170°S
Pressure: 29.71"   Gusts: NA
Location:  41.13°N, 73.71°W
Report Text: KHPN 250156Z 17008KT 10SM CLR 16/12 A2971 RMK AO2 SLP059 T01610122
Loading
Personal Weather Stations






























Interactive Weather Map New forecast layout! Learn more

10-Day Weather Forecast

Advertisements
Track Severe Weather on mobile